Time;durP1;ratioP1;P1;durP2;ratioP2;P2;SDS_P1;SDS_P2;PMS_P1;PMS_P2;Temp;Humidity;BMP_temperature;BMP_pressure;BME280_temperature;BME280_humidity;BME280_pressure;Samples;Min_cycle;Max_cycle;Signal;HPM_P1;HPM_P2
2021/12/27 00:01:09;;;;;;;30.92;17.42;;;;;;;1.51;94.78;97166.94;1739260;82;21284;-78
2021/12/27 00:03:37;;;;;;;27.60;15.08;;;;;;;1.54;94.98;97167.36;1739108;82;21053;-78
2021/12/27 00:06:09;;;;;;;24.60;15.20;;;;;;;1.55;94.89;97170.39;1739129;82;21017;-78
2021/12/27 00:08:32;;;;;;;24.95;14.87;;;;;;;1.56;94.78;97168.20;1740597;81;21522;-78
2021/12/27 00:10:59;;;;;;;24.92;14.28;;;;;;;1.60;94.94;97164.70;1739378;81;20942;-76
2021/12/27 00:13:25;;;;;;;28.52;14.70;;;;;;;1.65;95.04;97165.95;1739125;82;21088;-76
2021/12/27 00:15:52;;;;;;;24.20;15.10;;;;;;;1.70;95.13;97166.36;1739244;82;21387;-77
2021/12/27 00:18:18;;;;;;;25.50;14.45;;;;;;;1.75;95.19;97168.95;1739242;82;21009;-76
2021/12/27 00:20:45;;;;;;;24.20;14.55;;;;;;;1.84;95.43;97184.53;1753816;81;21009;-76
2021/12/27 00:23:11;;;;;;;21.65;13.75;;;;;;;1.91;95.42;97187.12;1769852;81;21021;-76
2021/12/27 00:25:37;;;;;;;23.65;13.70;;;;;;;1.93;95.18;97184.92;1769562;81;21435;-77
2021/12/27 00:28:04;;;;;;;24.70;14.30;;;;;;;1.94;94.88;97191.88;1769786;80;21006;-77
2021/12/27 00:30:30;;;;;;;23.98;14.00;;;;;;;1.94;94.92;97187.95;1769861;80;21502;-77
2021/12/27 00:32:57;;;;;;;24.55;14.93;;;;;;;1.90;94.54;97186.23;1760487;80;21025;-78
2021/12/27 00:35:26;;;;;;;25.75;14.75;;;;;;;1.87;94.43;97184.09;1750206;82;21060;-78
2021/12/27 00:37:53;;;;;;;23.85;14.65;;;;;;;1.82;94.33;97185.00;1750156;81;21359;-78
2021/12/27 00:40:20;;;;;;;25.70;14.93;;;;;;;1.75;94.14;97176.80;1757761;80;20992;-78
2021/12/27 00:42:46;;;;;;;26.82;15.35;;;;;;;1.68;94.11;97179.88;1780950;80;20953;-78
2021/12/27 00:45:13;;;;;;;30.43;15.95;;;;;;;1.64;94.22;97178.59;1780841;80;21399;-78
2021/12/27 00:47:40;;;;;;;24.12;14.45;;;;;;;1.62;94.29;97170.77;1780721;80;21464;-78
2021/12/27 00:50:08;;;;;;;27.77;15.03;;;;;;;1.60;94.09;97168.61;1776232;80;21107;-78
2021/12/27 00:52:35;;;;;;;25.57;15.05;;;;;;;1.57;94.28;97176.03;1750130;81;21498;-76
2021/12/27 00:55:06;;;;;;;26.37;15.40;;;;;;;1.58;94.36;97179.06;1750021;82;21469;-76
2021/12/27 00:57:33;;;;;;;28.32;15.53;;;;;;;1.57;94.17;97178.64;1744746;82;21003;-76
2021/12/27 01:00:00;;;;;;;28.83;14.18;;;;;;;1.53;94.07;97177.38;1745858;82;21016;-76
2021/12/27 01:02:30;;;;;;;25.43;15.40;;;;;;;1.51;94.26;97183.03;1756184;80;21036;-76
2021/12/27 01:04:56;;;;;;;24.52;14.55;;;;;;;1.48;94.19;97173.91;1780900;80;20992;-76
2021/12/27 01:07:23;;;;;;;28.75;15.75;;;;;;;1.45;94.26;97174.80;1781130;80;21008;-76
2021/12/27 01:10:28;;;;;;;26.15;14.65;;;;;;;1.42;94.36;97173.07;1780695;80;21045;-77
2021/12/27 01:12:46;;;;;;;26.82;15.18;;;;;;;1.43;94.20;97168.30;1777620;80;21056;-76
2021/12/27 01:15:34;;;;;;;25.25;14.10;;;;;;;1.41;94.31;97168.73;1762036;80;21021;-76
2021/12/27 01:17:42;;;;;;;24.07;13.90;;;;;;;1.40;94.35;97158.29;1740042;82;20973;-77
2021/12/27 01:20:14;;;;;;;26.97;15.00;;;;;;;1.41;94.28;97167.42;1745767;82;21016;-76
2021/12/27 01:22:41;;;;;;;29.35;14.70;;;;;;;1.41;94.47;97158.28;1745313;82;21482;-77
2021/12/27 01:25:12;;;;;;;29.52;15.53;;;;;;;1.44;94.42;97166.53;1747002;82;21073;-76
2021/12/27 01:27:42;;;;;;;26.50;15.90;;;;;;;1.48;94.33;97168.68;1773096;80;21005;-76
2021/12/27 01:30:15;;;;;;;26.85;15.18;;;;;;;1.50;94.10;97161.72;1778532;80;21387;-76
2021/12/27 01:32:49;;;;;;;24.60;14.93;;;;;;;1.51;94.28;97161.72;1770956;80;21061;-76
2021/12/27 01:35:14;;;;;;;25.43;14.43;;;;;;;1.53;94.25;97161.26;1769447;81;20977;-76
2021/12/27 01:37:41;;;;;;;25.80;15.00;;;;;;;1.57;94.50;97163.40;1769448;80;21080;-77
2021/12/27 01:40:10;;;;;;;25.20;14.33;;;;;;;1.59;94.57;97156.44;1744636;80;21033;-76
2021/12/27 01:42:36;;;;;;;24.43;14.40;;;;;;;1.63;94.55;97150.75;1739150;82;21013;-76
2021/12/27 01:45:04;;;;;;;26.60;14.20;;;;;;;1.67;94.59;97149.84;1739450;82;21000;-76
2021/12/27 01:47:32;;;;;;;22.30;13.15;;;;;;;1.71;94.57;97146.34;1739294;82;21471;-76
2021/12/27 01:49:58;;;;;;;21.35;12.70;;;;;;;1.74;94.61;97144.14;1739171;82;21435;-76
2021/12/27 01:52:25;;;;;;;23.15;13.70;;;;;;;1.75;94.37;97146.75;1745474;81;21080;-76
2021/12/27 01:54:51;;;;;;;19.85;12.28;;;;;;;1.79;94.42;97141.05;1739235;82;21014;-76
2021/12/27 01:57:18;;;;;;;21.68;12.88;;;;;;;1.79;94.57;97139.75;1739138;82;21010;-76
2021/12/27 01:59:45;;;;;;;22.37;13.20;;;;;;;1.79;94.55;97134.52;1739263;82;21045;-76
2021/12/27 02:02:12;;;;;;;23.45;13.58;;;;;;;1.78;94.53;97144.09;1739352;82;21474;-76
2021/12/27 02:04:39;;;;;;;27.20;15.53;;;;;;;1.78;94.36;97152.39;1766180;81;21371;-76
2021/12/27 02:07:05;;;;;;;24.35;14.38;;;;;;;1.76;94.20;97147.59;1769797;81;21021;-76
2021/12/27 02:09:44;;;;;;;26.77;15.40;;;;;;;1.71;94.11;97146.34;1769681;80;20977;-76
2021/12/27 02:12:00;;;;;;;28.80;16.80;;;;;;;1.67;94.19;97149.84;1767943;81;21478;-76
2021/12/27 02:14:28;;;;;;;28.70;16.60;;;;;;;1.65;94.21;97156.39;1768995;81;21030;-76
2021/12/27 02:16:54;;;;;;;28.30;15.70;;;;;;;1.62;94.06;97158.16;1739131;82;21025;-76
2021/12/27 02:19:21;;;;;;;29.35;16.77;;;;;;;1.57;94.03;97149.03;1739221;82;20989;-76
2021/12/27 02:21:48;;;;;;;29.92;17.32;;;;;;;1.54;94.03;97146.47;1739022;82;21060;-76
2021/12/27 02:24:14;;;;;;;31.02;18.30;;;;;;;1.50;94.18;97147.36;1739296;82;21028;-76
2021/12/27 02:26:41;;;;;;;32.20;18.23;;;;;;;1.45;94.38;97144.77;1739197;81;21462;-76
2021/12/27 02:29:09;;;;;;;30.70;17.60;;;;;;;1.43;94.34;97141.31;1769765;80;21002;-76
2021/12/27 02:31:39;;;;;;;27.62;16.70;;;;;;;1.40;94.41;97141.31;1769657;81;21033;-76
2021/12/27 02:34:05;;;;;;;30.43;17.27;;;;;;;1.37;94.50;97147.43;1769984;81;21057;-76
2021/12/27 02:36:33;;;;;;;28.47;16.42;;;;;;;1.37;94.40;97136.14;1774284;81;21029;-76
2021/12/27 02:39:00;;;;;;;30.80;17.30;;;;;;;1.34;94.29;97139.64;1775629;81;21000;-76
2021/12/27 02:41:26;;;;;;;30.82;17.55;;;;;;;1.33;94.78;97139.64;1749349;81;21021;-76
2021/12/27 02:43:53;;;;;;;28.87;16.27;;;;;;;1.35;94.58;97137.45;1750239;81;21437;-76
2021/12/27 02:46:19;;;;;;;30.35;16.23;;;;;;;1.35;94.75;97135.27;1750026;82;20993;-76
2021/12/27 02:48:48;;;;;;;26.77;15.40;;;;;;;1.36;94.71;97123.51;1750175;81;20953;-76
2021/12/27 02:51:18;;;;;;;28.23;17.07;;;;;;;1.39;94.54;97128.72;1757095;80;21071;-76
2021/12/27 02:53:48;;;;;;;28.17;15.95;;;;;;;1.40;94.63;97130.45;1780730;80;21011;-76
2021/12/27 02:56:17;;;;;;;29.82;17.02;;;;;;;1.39;94.52;97126.11;1780852;80;21071;-76
2021/12/27 02:58:44;;;;;;;28.23;16.07;;;;;;;1.42;94.43;97125.22;1780879;80;20993;-76
2021/12/27 03:01:16;;;;;;;29.52;16.02;;;;;;;1.46;94.39;97123.02;1780681;80;20977;-76
2021/12/27 03:03:44;;;;;;;27.48;16.05;;;;;;;1.45;94.33;97122.14;1770719;80;21048;-76
2021/12/27 03:06:11;;;;;;;31.68;16.90;;;;;;;1.46;94.31;97121.72;1750042;82;21043;-76
2021/12/27 03:08:40;;;;;;;28.47;16.42;;;;;;;1.51;94.42;97124.28;1749953;81;21470;-76
2021/12/27 03:11:10;;;;;;;26.25;15.25;;;;;;;1.55;94.52;97129.48;1750053;81;21024;-76
2021/12/27 03:13:40;;;;;;;29.80;15.98;;;;;;;1.57;94.38;97123.80;1749899;81;21056;-76
2021/12/27 03:16:15;;;;;;;29.63;16.30;;;;;;;1.61;94.61;97125.94;1763990;80;21013;-77
2021/12/27 03:18:52;;;;;;;29.65;15.98;;;;;;;1.65;94.50;97124.16;1780783;80;21050;-77
2021/12/27 03:21:19;;;;;;;27.13;15.53;;;;;;;1.66;94.38;97129.38;1780234;80;21490;-76
2021/12/27 03:23:48;;;;;;;30.15;16.52;;;;;;;1.69;94.54;97133.28;1780937;80;21391;-77
2021/12/27 03:26:16;;;;;;;27.62;15.63;;;;;;;1.71;94.56;97132.82;1776057;81;21072;-76
2021/12/27 03:28:43;;;;;;;27.15;16.12;;;;;;;1.75;94.66;97137.61;1755425;80;21055;-77
2021/12/27 03:31:11;;;;;;;26.75;15.38;;;;;;;1.76;94.63;97131.92;1750244;81;21565;-76
2021/12/27 03:33:38;;;;;;;28.42;15.45;;;;;;;1.75;94.50;97132.38;1740192;82;21025;-77
2021/12/27 03:36:08;;;;;;;29.57;15.90;;;;;;;1.76;94.21;97137.14;1739202;82;21080;-76
2021/12/27 03:38:39;;;;;;;27.73;14.93;;;;;;;1.68;94.09;97134.17;1739287;82;21018;-76
2021/12/27 03:41:12;;;;;;;26.80;15.68;;;;;;;1.66;94.13;97133.30;1739928;81;21011;-76
2021/12/27 03:43:40;;;;;;;26.73;14.93;;;;;;;1.65;94.17;97134.19;1739142;82;21057;-77
2021/12/27 03:46:06;;;;;;;27.58;15.88;;;;;;;1.64;94.12;97135.50;1739489;82;20990;-76
2021/12/27 03:48:33;;;;;;;31.97;16.50;;;;;;;1.62;94.09;97137.27;1739175;82;21036;-76
2021/12/27 03:51:01;;;;;;;29.48;16.80;;;;;;;1.62;94.10;97137.27;1746088;81;21029;-77
2021/12/27 03:53:29;;;;;;;28.15;15.78;;;;;;;1.61;94.00;97134.23;1769682;81;21029;-77
2021/12/27 03:55:56;;;;;;;27.95;15.45;;;;;;;1.55;94.13;97135.14;1769658;81;21479;-77
2021/12/27 03:58:29;;;;;;;33.55;16.70;;;;;;;1.51;94.00;97135.61;1775222;81;21045;-77
2021/12/27 04:03:21;;;;;;;32.40;16.52;;;;;;;1.50;94.29;97130.39;1757547;81;21426;-77
2021/12/27 04:05:48;;;;;;;29.82;16.37;;;;;;;1.49;94.15;97126.89;1739390;82;21431;-77
2021/12/27 04:08:17;;;;;;;29.70;16.50;;;;;;;1.50;94.04;97124.70;1739403;82;21029;-77
2021/12/27 04:10:46;;;;;;;32.05;17.45;;;;;;;1.49;93.99;97129.51;1739303;82;21139;-77
2021/12/27 04:13:14;;;;;;;28.45;16.85;;;;;;;1.48;94.24;97131.70;1739309;82;20990;-77
2021/12/27 04:15:41;;;;;;;33.33;16.62;;;;;;;1.48;94.21;97126.90;1754042;81;21040;-78
2021/12/27 04:18:14;;;;;;;31.30;16.75;;;;;;;1.46;94.21;97132.16;1769659;81;20997;-76
2021/12/27 04:20:41;;;;;;;30.85;17.23;;;;;;;1.42;94.30;97127.37;1769722;81;21036;-76
2021/12/27 04:23:08;;;;;;;32.70;17.85;;;;;;;1.43;94.16;97130.87;1769675;81;21375;-76
2021/12/27 04:25:35;;;;;;;32.17;17.92;;;;;;;1.46;94.17;97124.33;1769547;81;21064;-76
2021/12/27 04:28:03;;;;;;;35.13;19.27;;;;;;;1.50;94.19;97129.93;1746801;81;20993;-76
2021/12/27 04:30:29;;;;;;;32.65;17.17;;;;;;;1.50;94.24;97127.31;1739533;82;21020;-76
2021/12/27 04:32:56;;;;;;;34.60;17.75;;;;;;;1.52;94.30;97122.97;1739140;82;21072;-77
2021/12/27 04:35:23;;;;;;;32.90;18.20;;;;;;;1.56;94.17;97125.11;1739330;82;21033;-77
2021/12/27 04:37:51;;;;;;;33.92;18.12;;;;;;;1.60;94.41;97116.80;1739316;82;21052;-76
2021/12/27 04:40:21;;;;;;;30.77;16.67;;;;;;;1.60;94.43;97115.07;1764402;81;20981;-76
2021/12/27 04:42:53;;;;;;;29.40;17.82;;;;;;;1.63;94.45;97104.61;1770104;80;21013;-76
2021/12/27 04:45:19;;;;;;;35.10;17.95;;;;;;;1.65;94.46;97109.80;1769739;81;21026;-76
2021/12/27 04:47:46;;;;;;;25.25;15.63;;;;;;;1.69;94.43;97111.08;1769828;81;21006;-76
2021/12/27 04:50:14;;;;;;;30.25;17.60;;;;;;;1.69;94.34;97105.86;1749635;81;21048;-76
2021/12/27 04:52:41;;;;;;;29.50;17.02;;;;;;;1.65;94.31;97093.70;1739174;82;21048;-76
2021/12/27 04:55:08;;;;;;;29.32;16.82;;;;;;;1.64;94.36;97105.03;1739351;82;21460;-76
2021/12/27 04:57:35;;;;;;;30.02;17.35;;;;;;;1.66;94.50;97105.02;1739413;82;21076;-76
2021/12/27 05:00:05;;;;;;;28.15;16.48;;;;;;;1.66;94.36;97103.26;1756549;81;21006;-77
2021/12/27 05:02:32;;;;;;;27.93;16.62;;;;;;;1.67;94.54;97102.38;1748093;81;21454;-76
2021/12/27 05:04:58;;;;;;;28.83;17.82;;;;;;;1.66;94.33;97110.25;1769909;81;20978;-77
2021/12/27 05:07:24;;;;;;;31.37;16.82;;;;;;;1.64;94.38;97106.77;1767503;81;21076;-76
2021/12/27 05:09:51;;;;;;;31.48;17.52;;;;;;;1.60;94.05;97110.27;1769901;81;21045;-77
2021/12/27 05:12:17;;;;;;;25.52;16.10;;;;;;;1.57;94.19;97109.44;1769516;81;20958;-76
2021/12/27 05:14:43;;;;;;;29.67;17.05;;;;;;;1.53;94.14;97105.11;1778171;81;21017;-76
2021/12/27 05:17:10;;;;;;;32.73;18.37;;;;;;;1.53;94.19;97108.18;1777391;81;21076;-76
2021/12/27 05:19:36;;;;;;;31.42;17.10;;;;;;;1.50;94.20;97108.19;1739882;82;20994;-76
2021/12/27 05:22:03;;;;;;;34.00;18.55;;;;;;;1.49;94.30;97107.31;1739124;82;21029;-76
2021/12/27 05:24:30;;;;;;;27.93;16.55;;;;;;;1.50;94.17;97110.34;1739382;82;21088;-76
2021/12/27 05:26:56;;;;;;;33.10;17.60;;;;;;;1.50;94.14;97106.89;1739206;82;20997;-76
2021/12/27 05:29:23;;;;;;;33.85;18.27;;;;;;;1.48;94.17;97102.09;1740283;81;21005;-77
2021/12/27 05:31:51;;;;;;;30.27;16.90;;;;;;;1.48;94.09;97100.36;1769697;81;21458;-76
2021/12/27 05:34:18;;;;;;;28.35;16.37;;;;;;;1.44;93.94;97100.83;1780501;80;21011;-77
2021/12/27 05:36:45;;;;;;;29.87;16.20;;;;;;;1.45;94.04;97099.07;1781024;80;21478;-76
2021/12/27 05:39:16;;;;;;;28.45;16.48;;;;;;;1.44;94.01;97095.61;1780836;80;21422;-76
2021/12/27 05:41:42;;;;;;;28.20;16.73;;;;;;;1.44;94.19;97090.81;1777637;80;20970;-77
2021/12/27 05:44:09;;;;;;;27.85;16.82;;;;;;;1.43;93.98;97094.31;1750166;82;20985;-76
2021/12/27 05:46:35;;;;;;;31.37;16.75;;;;;;;1.43;93.76;97094.31;1750203;82;21024;-77
2021/12/27 05:49:02;;;;;;;26.65;17.15;;;;;;;1.41;94.00;97092.16;1750089;81;20981;-76
2021/12/27 05:51:28;;;;;;;31.42;18.45;;;;;;;1.39;93.89;97097.39;1750178;82;21008;-76
2021/12/27 05:53:54;;;;;;;32.28;18.67;;;;;;;1.39;93.80;97101.73;1753024;81;21092;-76
2021/12/27 05:56:21;;;;;;;33.45;18.85;;;;;;;1.39;93.98;97101.73;1780696;80;21036;-77
2021/12/27 05:58:47;;;;;;;31.48;18.12;;;;;;;1.37;94.21;97099.13;1780851;80;21002;-76
2021/12/27 06:01:14;;;;;;;32.28;17.95;;;;;;;1.38;93.95;97096.09;1780839;80;21394;-76
2021/12/27 06:03:40;;;;;;;30.05;17.12;;;;;;;1.40;93.88;97096.50;1759785;80;21445;-76
2021/12/27 06:06:08;;;;;;;31.97;17.55;;;;;;;1.44;93.86;97099.95;1750200;82;20984;-76
2021/12/27 06:08:34;;;;;;;32.20;17.15;;;;;;;1.45;94.03;97099.95;1750054;81;21048;-76
2021/12/27 06:11:01;;;;;;;34.40;16.97;;;;;;;1.47;94.01;97102.98;1753160;80;20996;-76
2021/12/27 06:13:27;;;;;;;29.75;17.05;;;;;;;1.54;94.25;97106.84;1780849;80;21430;-76
2021/12/27 06:15:54;;;;;;;28.73;15.48;;;;;;;1.54;94.01;97096.39;1780937;80;20981;-76
2021/12/27 06:18:21;;;;;;;28.57;15.63;;;;;;;1.56;94.01;97100.30;1780902;80;21068;-77
2021/12/27 06:20:47;;;;;;;28.45;15.80;;;;;;;1.55;93.96;97099.45;1776044;80;20953;-77
2021/12/27 06:23:14;;;;;;;28.20;16.00;;;;;;;1.59;94.26;97093.76;1750082;82;21090;-76
2021/12/27 06:25:43;;;;;;;28.52;16.55;;;;;;;1.63;94.38;97083.72;1750023;82;21100;-76
2021/12/27 06:28:09;;;;;;;32.33;17.05;;;;;;;1.63;94.22;97085.02;1754920;82;21009;-76
2021/12/27 06:30:35;;;;;;;26.97;16.37;;;;;;;1.68;94.44;97091.07;1749965;81;21012;-76
2021/12/27 06:33:02;;;;;;;34.20;18.48;;;;;;;1.73;94.58;97092.32;1761021;80;21068;-76
2021/12/27 06:35:29;;;;;;;34.98;17.17;;;;;;;1.74;94.33;97091.89;1780519;81;21040;-77
2021/12/27 06:37:55;;;;;;;33.55;17.90;;;;;;;1.74;94.27;97092.74;1780671;80;21466;-77
2021/12/27 06:40:22;;;;;;;32.88;18.77;;;;;;;1.73;94.25;97091.02;1780947;80;20942;-77
2021/12/27 06:42:48;;;;;;;33.00;18.42;;;;;;;1.68;94.19;97087.58;1780764;80;21045;-76
2021/12/27 06:45:15;;;;;;;34.27;18.52;;;;;;;1.62;94.20;97085.88;1779705;80;21458;-76
2021/12/27 06:47:42;;;;;;;39.10;18.10;;;;;;;1.57;93.99;97085.93;1780769;80;21106;-76
2021/12/27 06:50:10;;;;;;;39.23;18.57;;;;;;;1.56;94.24;97083.33;1780853;80;21056;-76
2021/12/27 06:52:37;;;;;;;33.48;18.80;;;;;;;1.55;94.03;97090.74;1780843;80;20949;-76
2021/12/27 06:55:05;;;;;;;36.65;17.75;;;;;;;1.51;94.34;97080.77;1780791;80;20989;-76
2021/12/27 06:57:32;;;;;;;36.20;17.67;;;;;;;1.48;94.35;97079.47;1763749;80;21420;-76
2021/12/27 07:00:01;;;;;;;33.70;17.35;;;;;;;1.47;94.39;97088.63;1749857;82;21120;-77
2021/12/27 07:02:28;;;;;;;37.33;17.73;;;;;;;1.47;94.41;97082.09;1750119;82;20993;-77
2021/12/27 07:04:54;;;;;;;40.92;17.52;;;;;;;1.44;94.62;97086.90;1749904;82;20989;-77
2021/12/27 07:07:20;;;;;;;36.98;17.15;;;;;;;1.42;94.64;97081.68;1749910;81;21093;-77
2021/12/27 07:09:47;;;;;;;34.63;17.73;;;;;;;1.43;94.63;97087.36;1771128;80;21474;-77
2021/12/27 07:12:14;;;;;;;36.28;18.85;;;;;;;1.41;94.80;97081.72;1780812;80;21044;-76
2021/12/27 07:14:40;;;;;;;38.25;17.70;;;;;;;1.40;94.58;97086.06;1780721;80;21100;-76
2021/12/27 07:17:07;;;;;;;29.45;15.63;;;;;;;1.41;94.75;97089.09;1772531;80;20988;-76
2021/12/27 07:19:33;;;;;;;39.20;18.90;;;;;;;1.41;94.69;97079.11;1750012;82;21060;-76
2021/12/27 07:22:00;;;;;;;37.65;17.35;;;;;;;1.41;94.79;97082.56;1750217;82;21450;-76
2021/12/27 07:24:27;;;;;;;39.83;17.65;;;;;;;1.42;94.47;97087.36;1749992;82;21051;-76
2021/12/27 07:26:53;;;;;;;34.88;15.48;;;;;;;1.41;94.83;97093.02;1776818;81;20996;-76
2021/12/27 07:29:22;;;;;;;37.60;16.07;;;;;;;1.38;94.93;97093.05;1781005;80;21485;-76
2021/12/27 07:31:49;;;;;;;33.90;15.43;;;;;;;1.40;94.78;97093.90;1780997;80;21001;-77
2021/12/27 07:34:19;;;;;;;31.42;16.57;;;;;;;1.41;95.02;97089.09;1766623;80;21075;-76
2021/12/27 07:36:47;;;;;;;33.48;16.50;;;;;;;1.42;95.25;97092.59;1750186;82;21123;-77
2021/12/27 07:39:14;;;;;;;30.68;15.63;;;;;;;1.45;95.11;97092.12;1750259;82;21041;-76
2021/12/27 07:41:41;;;;;;;31.95;15.85;;;;;;;1.48;94.81;97093.84;1750070;81;21023;-76
2021/12/27 07:44:08;;;;;;;32.48;15.05;;;;;;;1.54;95.31;97088.55;1762234;80;21001;-76
2021/12/27 07:46:43;;;;;;;39.65;16.27;;;;;;;1.63;95.35;97086.33;1780615;80;21480;-76
2021/12/27 07:49:08;;;;;;;30.85;15.32;;;;;;;1.68;95.31;97088.45;1780125;79;20989;-76
2021/12/27 07:51:36;;;;;;;33.55;15.13;;;;;;;1.75;95.61;97092.31;1778859;80;21025;-76
2021/12/27 07:54:03;;;;;;;33.85;14.30;;;;;;;1.82;95.59;97088.75;1780973;80;21446;-77
2021/12/27 07:56:30;;;;;;;30.90;14.93;;;;;;;1.87;95.35;97092.19;1761058;80;21012;-76
2021/12/27 07:58:56;;;;;;;28.75;14.83;;;;;;;1.92;95.36;97092.16;1750279;82;21003;-76
2021/12/27 08:01:23;;;;;;;29.72;14.50;;;;;;;1.91;95.17;97103.50;1750131;81;21477;-76
2021/12/27 08:03:49;;;;;;;28.15;14.35;;;;;;;1.91;95.32;97104.81;1756725;80;22127;-77
2021/12/27 08:06:16;;;;;;;28.87;14.53;;;;;;;1.87;95.28;97101.80;1781113;80;21036;-76
2021/12/27 08:08:42;;;;;;;32.95;15.15;;;;;;;1.88;95.33;97095.25;1780782;80;21363;-77
2021/12/27 08:11:09;;;;;;;29.92;14.98;;;;;;;1.93;95.75;97094.77;1781046;80;20977;-77
2021/12/27 08:13:37;;;;;;;29.75;14.63;;;;;;;1.95;95.44;97099.98;1777779;80;21036;-77
2021/12/27 08:16:04;;;;;;;32.90;15.83;;;;;;;1.96;95.43;97100.40;1750114;82;20977;-77
2021/12/27 08:18:31;;;;;;;28.57;14.90;;;;;;;1.95;95.31;97107.83;1750220;82;21461;-77
2021/12/27 08:20:57;;;;;;;31.42;15.55;;;;;;;1.88;95.15;97108.31;1750229;81;20984;-77
2021/12/27 08:23:23;;;;;;;36.33;15.75;;;;;;;1.82;95.51;97096.59;1771326;80;21029;-77
2021/12/27 08:25:50;;;;;;;27.85;14.78;;;;;;;1.78;95.49;97098.83;1780943;80;21012;-77
2021/12/27 08:28:17;;;;;;;31.65;16.45;;;;;;;1.74;95.22;97101.04;1781020;80;21017;-77
2021/12/27 08:30:43;;;;;;;29.95;15.15;;;;;;;1.71;94.98;97097.55;1772442;81;21477;-77
2021/12/27 08:33:10;;;;;;;33.73;16.10;;;;;;;1.70;95.00;97099.75;1748704;81;21055;-77
2021/12/27 08:35:37;;;;;;;28.87;14.75;;;;;;;1.70;94.88;97094.52;1739105;82;21057;-76
2021/12/27 08:38:04;;;;;;;33.40;16.42;;;;;;;1.70;94.84;97094.95;1739237;82;21478;-77
2021/12/27 08:40:31;;;;;;;32.23;16.75;;;;;;;1.69;95.19;97099.33;1743881;81;21029;-76
2021/12/27 08:42:57;;;;;;;35.73;17.48;;;;;;;1.72;95.40;97095.82;1769737;80;21013;-77
2021/12/27 08:45:23;;;;;;;33.08;16.35;;;;;;;1.73;95.40;97091.47;1769464;81;21422;-76
2021/12/27 08:47:50;;;;;;;32.40;16.93;;;;;;;1.73;95.47;97091.02;1769637;80;20986;-77
2021/12/27 08:50:17;;;;;;;33.08;17.10;;;;;;;1.77;95.15;97085.31;1769665;81;21013;-77
2021/12/27 08:52:45;;;;;;;34.73;16.65;;;;;;;1.76;94.93;97080.98;1761462;81;21009;-76
2021/12/27 08:55:13;;;;;;;34.67;16.95;;;;;;;1.76;95.22;97080.98;1751048;81;21013;-77
2021/12/27 08:57:40;;;;;;;32.00;17.80;;;;;;;1.79;94.88;97073.97;1760143;81;21016;-76
2021/12/27 09:00:10;;;;;;;31.65;16.52;;;;;;;1.79;94.99;97071.82;1769787;81;20982;-77
2021/12/27 09:02:38;;;;;;;36.50;18.30;;;;;;;1.80;95.13;97072.23;1769830;80;20946;-76
2021/12/27 09:05:06;;;;;;;36.73;18.73;;;;;;;1.78;95.08;97066.17;1761487;81;21073;-76
2021/12/27 09:07:32;;;;;;;36.17;18.82;;;;;;;1.81;95.08;97063.08;1739290;82;20993;-77
2021/12/27 09:09:59;;;;;;;28.00;16.77;;;;;;;1.84;94.85;97058.27;1739060;82;21025;-77
2021/12/27 09:12:25;;;;;;;31.23;17.60;;;;;;;1.88;94.89;97049.95;1739292;82;21002;-77
2021/12/27 09:14:52;;;;;;;25.55;15.00;;;;;;;1.91;95.21;97052.55;1739251;82;21033;-77
2021/12/27 09:17:18;;;;;;;24.82;14.87;;;;;;;1.97;95.21;97046.82;1751105;81;20966;-77
2021/12/27 09:19:45;;;;;;;26.68;14.23;;;;;;;2.03;95.36;97050.25;1769786;81;21001;-77
2021/12/27 09:22:13;;;;;;;26.25;14.23;;;;;;;2.08;95.33;97040.14;1769893;81;21439;-76
2021/12/27 09:24:41;;;;;;;21.00;12.95;;;;;;;2.11;95.33;97041.43;1769579;80;20994;-77
2021/12/27 09:27:08;;;;;;;22.05;13.60;;;;;;;2.17;95.74;97040.51;1739195;82;21057;-77
2021/12/27 09:29:35;;;;;;;21.45;12.80;;;;;;;2.25;96.00;97035.19;1739313;82;21028;-76
2021/12/27 09:32:02;;;;;;;20.15;12.45;;;;;;;2.29;96.04;97025.55;1739354;82;21006;-77
2021/12/27 09:34:28;;;;;;;21.70;12.82;;;;;;;2.31;95.96;97018.11;1720305;82;21014;-77
2021/12/27 09:36:55;;;;;;;20.60;12.73;;;;;;;2.30;96.02;97023.35;1728318;83;21064;-77
2021/12/27 09:39:22;;;;;;;19.65;12.28;;;;;;;2.28;96.04;97026.44;1730928;82;20998;-76
2021/12/27 09:41:48;;;;;;;20.90;12.58;;;;;;;2.26;95.89;97020.34;1730820;83;20959;-77
2021/12/27 09:44:15;;;;;;;18.98;12.33;;;;;;;2.23;95.69;97019.94;1731039;83;21045;-77
2021/12/27 09:46:41;;;;;;;19.90;13.25;;;;;;;2.21;95.86;97011.27;1730677;82;20978;-77
2021/12/27 09:49:13;;;;;;;20.65;12.90;;;;;;;2.19;95.76;97017.81;1720233;83;20961;-77
2021/12/27 09:51:40;;;;;;;20.43;12.90;;;;;;;2.15;95.69;97010.04;1713028;82;21068;-77
2021/12/27 09:54:08;;;;;;;19.98;13.28;;;;;;;2.12;96.11;97004.41;1701658;84;21037;-77
2021/12/27 09:56:35;;;;;;;22.05;13.15;;;;;;;2.11;96.14;97007.88;1702129;84;21013;-77
2021/12/27 09:59:01;;;;;;;21.57;13.28;;;;;;;2.09;96.14;97004.00;1706203;83;21471;-77
2021/12/27 10:01:27;;;;;;;20.62;12.70;;;;;;;2.07;95.98;96995.72;1730884;83;21007;-76
2021/12/27 10:03:58;;;;;;;17.92;12.05;;;;;;;2.04;95.83;97001.86;1730901;82;21049;-76
2021/12/27 10:06:27;;;;;;;21.50;12.35;;;;;;;2.01;95.83;97003.64;1731003;82;21002;-77
2021/12/27 10:08:58;;;;;;;20.60;12.30;;;;;;;1.97;95.97;97000.20;1708243;83;21025;-77
2021/12/27 10:11:35;;;;;;;21.07;13.90;;;;;;;1.95;96.20;96992.84;1701641;84;20978;-77
2021/12/27 10:14:16;;;;;;;23.00;13.40;;;;;;;1.94;95.85;96988.47;1701774;84;21030;-77
2021/12/27 10:16:52;;;;;;;21.97;13.62;;;;;;;1.92;96.11;96992.44;1701444;84;21009;-77
2021/12/27 10:19:22;;;;;;;18.95;13.30;;;;;;;1.93;96.38;96995.89;1729159;83;21045;-77
2021/12/27 10:21:52;;;;;;;20.37;13.20;;;;;;;1.92;96.14;96992.44;1730910;82;21014;-77
2021/12/27 10:24:29;;;;;;;19.48;12.73;;;;;;;1.87;96.29;96998.13;1738590;82;21033;-76
2021/12/27 10:26:59;;;;;;;19.65;12.75;;;;;;;1.86;96.28;96993.78;1712742;83;21037;-76
2021/12/27 10:29:31;;;;;;;17.90;12.58;;;;;;;1.86;96.37;96991.63;1697179;84;21092;-77
2021/12/27 10:32:16;;;;;;;23.15;15.63;;;;;;;1.86;96.13;96987.72;1699081;84;21026;-77
2021/12/27 10:34:47;;;;;;;;;;;;;;;1.88;96.30;96988.12;1722150;81;21022;-77
2021/12/27 10:37:25;;;;;;;20.12;13.03;;;;;;;1.89;96.69;96985.05;1759645;81;20117;-78
2021/12/27 10:40:09;;;;;;;20.37;12.90;;;;;;;1.89;96.52;96975.91;1767350;80;21430;-76
2021/12/27 10:42:40;;;;;;;21.62;13.80;;;;;;;1.93;96.38;96981.52;1767472;81;21037;-76
2021/12/27 10:45:19;;;;;;;22.85;14.03;;;;;;;1.96;96.33;96978.42;1767078;80;21037;-77
2021/12/27 10:47:49;;;;;;;20.23;12.80;;;;;;;2.01;96.25;96976.20;1764759;81;21021;-77
2021/12/27 10:50:24;;;;;;;22.20;13.70;;;;;;;2.04;96.42;96970.95;1742710;81;21504;-77
2021/12/27 10:53:06;;;;;;;20.43;13.22;;;;;;;2.09;96.61;96970.02;1736003;82;21478;-76
2021/12/27 10:55:46;;;;;;;19.25;12.53;;;;;;;2.16;96.80;96963.41;1736795;83;20985;-77
2021/12/27 10:58:27;;;;;;;16.90;11.95;;;;;;;2.19;97.08;96952.89;1736710;83;21013;-77
2021/12/27 11:01:00;;;;;;;19.82;12.13;;;;;;;2.22;96.75;96952.86;1756495;81;21459;-77
2021/12/27 11:03:37;;;;;;;17.73;11.70;;;;;;;2.28;96.87;96945.39;1767251;81;20970;-77
2021/12/27 11:06:08;;;;;;;17.98;11.53;;;;;;;2.33;96.72;96946.19;1766391;81;20966;-77
2021/12/27 11:08:38;;;;;;;17.87;11.08;;;;;;;2.36;96.77;96944.82;1764588;81;21415;-77
2021/12/27 11:11:06;;;;;;;20.80;13.53;;;;;;;2.35;96.43;96940.48;1762234;81;21065;-77
2021/12/27 11:13:33;;;;;;;19.98;12.53;;;;;;;2.37;96.99;96937.42;1733669;81;21033;-77
2021/12/27 11:16:02;;;;;;;18.37;12.43;;;;;;;2.37;97.22;96934.81;1733921;83;21040;-77
2021/12/27 11:18:29;;;;;;;22.22;15.32;;;;;;;2.41;97.60;96931.70;1736749;82;20986;-77
2021/12/27 11:21:14;;;;;;;27.93;17.80;;;;;;;2.41;97.46;96926.01;1736871;83;21048;-77
2021/12/27 11:23:42;;;;;;;30.00;19.35;;;;;;;2.38;96.97;96928.69;1744327;81;20970;-77
2021/12/27 11:26:13;;;;;;;30.52;19.25;;;;;;;2.31;96.96;96923.98;1767126;80;21010;-77
2021/12/27 11:28:44;;;;;;;27.48;19.07;;;;;;;2.32;97.37;96920.47;1764947;81;21021;-77
2021/12/27 11:31:27;;;;;;;30.25;18.82;;;;;;;2.31;97.48;96916.14;1765455;81;21002;-77
2021/12/27 11:34:13;;;;;;;24.77;15.80;;;;;;;2.28;97.36;96913.55;1759096;81;21498;-76